Time,TemperatureF,DewpointF,PressureIn,WindDirection,WindDirectionDegrees,WindSpeedMPH,WindSpeedGustMPH,Humidity,HourlyPrecipIn,Conditions,Clouds,dailyrainin,SolarRadiationWatts/m^2,SoftwareType,DateUTC
2013-05-25 00:01:00,32.0,31.0,-100.00,SW,235,1.0,4.0,95,0.00,,,0.00,0.000000,,2013-05-25 06:01:00,
2013-05-25 00:11:00,32.0,31.0,-100.00,SW,235,1.0,4.0,95,0.00,,,0.00,0.000000,,2013-05-25 06:11:00,
2013-05-25 00:32:00,31.0,30.0,-100.00,West,264,1.0,4.0,96,0.00,,,0.00,0.000000,,2013-05-25 06:32:00,
2013-05-25 00:42:00,31.0,30.0,-100.00,West,264,1.0,4.0,96,0.00,,,0.00,0.000000,,2013-05-25 06:42:00,
2013-05-25 00:52:00,31.0,30.0,-100.00,West,264,1.0,4.0,96,0.00,,,0.00,0.000000,,2013-05-25 06:52:00,
2013-05-25 01:01:00,31.0,30.0,-100.00,West,264,1.0,4.0,96,0.00,,,0.00,0.000000,,2013-05-25 07:01:00,
2013-05-25 01:11:00,31.0,30.0,-100.00,West,264,1.0,4.0,96,0.00,,,0.00,0.000000,,2013-05-25 07:11:00,
2013-05-25 01:32:00,31.0,30.0,-100.00,NW,315,0.0,2.0,96,0.00,,,0.00,0.000000,,2013-05-25 07:32:00,
2013-05-25 01:42:00,31.0,30.0,-100.00,NW,315,0.0,2.0,96,0.00,,,0.00,0.000000,,2013-05-25 07:42:00,
2013-05-25 01:52:00,31.0,30.0,-100.00,NW,315,0.0,2.0,96,0.00,,,0.00,0.000000,,2013-05-25 07:52:00,
2013-05-25 02:02:00,31.0,30.0,-100.00,NW,315,0.0,2.0,96,0.00,,,0.00,0.000000,,2013-05-25 08:02:00,
2013-05-25 02:11:00,31.0,30.0,-100.00,NW,315,0.0,2.0,96,0.00,,,0.00,0.000000,,2013-05-25 08:11:00,
2013-05-25 02:32:00,30.0,29.0,-100.00,NNW,334,2.0,2.0,95,0.00,,,0.00,0.000000,,2013-05-25 08:32:00,
2013-05-25 02:42:00,30.0,29.0,-100.00,NNW,334,2.0,2.0,95,0.00,,,0.00,0.000000,,2013-05-25 08:42:00,
2013-05-25 02:52:00,30.0,29.0,-100.00,NNW,334,2.0,2.0,95,0.00,,,0.00,0.000000,,2013-05-25 08:52:00,
2013-05-25 03:01:00,30.0,29.0,-100.00,NNW,334,2.0,2.0,95,0.00,,,0.00,0.000000,,2013-05-25 09:01:00,
2013-05-25 03:11:00,30.0,29.0,-100.00,NNW,334,2.0,2.0,95,0.00,,,0.00,0.000000,,2013-05-25 09:11:00,
2013-05-25 03:33:00,31.0,30.0,-100.00,NE,45,2.0,3.0,95,0.00,,,0.00,0.000000,,2013-05-25 09:33:00,
2013-05-25 03:43:00,31.0,30.0,-100.00,NE,45,2.0,3.0,95,0.00,,,0.00,0.000000,,2013-05-25 09:43:00,
2013-05-25 03:53:00,31.0,30.0,-100.00,NE,45,2.0,3.0,95,0.00,,,0.00,0.000000,,2013-05-25 09:53:00,
2013-05-25 04:02:00,31.0,30.0,-100.00,NE,45,2.0,3.0,95,0.00,,,0.00,0.000000,,2013-05-25 10:02:00,
2013-05-25 04:12:00,31.0,30.0,-100.00,NE,45,2.0,3.0,95,0.00,,,0.00,0.000000,,2013-05-25 10:12:00,
2013-05-25 04:33:00,31.0,27.0,-100.00,NNW,328,2.0,3.0,85,0.00,,,0.00,0.000000,,2013-05-25 10:33:00,
2013-05-25 04:42:00,31.0,27.0,-100.00,NNW,328,2.0,3.0,85,0.00,,,0.00,0.000000,,2013-05-25 10:42:00,
2013-05-25 04:52:00,31.0,27.0,-100.00,NNW,328,2.0,3.0,85,0.00,,,0.00,0.000000,,2013-05-25 10:52:00,
2013-05-25 05:02:00,31.0,27.0,-100.00,NNW,328,2.0,3.0,85,0.00,,,0.00,0.000000,,2013-05-25 11:02:00,
2013-05-25 05:11:00,31.0,27.0,-100.00,NNW,328,2.0,3.0,85,0.00,,,0.00,0.000000,,2013-05-25 11:11:00,
2013-05-25 05:32:00,30.0,27.0,-100.00,ENE,62,2.0,3.0,88,0.00,,,0.00,0.000000,,2013-05-25 11:32:00,
2013-05-25 05:42:00,30.0,27.0,-100.00,ENE,62,2.0,3.0,88,0.00,,,0.00,0.000000,,2013-05-25 11:42:00,
2013-05-25 05:52:00,30.0,27.0,-100.00,ENE,62,2.0,3.0,88,0.00,,,0.00,0.000000,,2013-05-25 11:52:00,
2013-05-25 06:01:00,30.0,27.0,-100.00,ENE,62,2.0,3.0,88,0.00,,,0.00,0.000000,,2013-05-25 12:01:00,
2013-05-25 06:12:00,30.0,27.0,-100.00,ENE,62,2.0,3.0,88,0.00,,,0.00,0.000000,,2013-05-25 12:12:00,
2013-05-25 06:32:00,31.0,26.0,-100.00,WNW,298,1.0,4.0,82,0.00,,,0.00,0.000000,,2013-05-25 12:32:00,
2013-05-25 06:42:00,31.0,26.0,-100.00,WNW,298,1.0,4.0,82,0.00,,,0.00,0.000000,,2013-05-25 12:42:00,
2013-05-25 06:52:00,31.0,26.0,-100.00,WNW,298,1.0,4.0,82,0.00,,,0.00,0.000000,,2013-05-25 12:52:00,
2013-05-25 07:02:00,31.0,26.0,-100.00,WNW,298,1.0,4.0,82,0.00,,,0.00,0.000000,,2013-05-25 13:02:00,
2013-05-25 07:11:00,31.0,26.0,-100.00,WNW,298,1.0,4.0,82,0.00,,,0.00,0.000000,,2013-05-25 13:11:00,
2013-05-25 07:32:00,31.0,27.0,-100.00,NW,320,2.0,4.0,85,0.00,,,0.00,3.000000,,2013-05-25 13:32:00,
2013-05-25 07:42:00,31.0,27.0,-100.00,NW,320,2.0,4.0,85,0.00,,,0.00,3.000000,,2013-05-25 13:42:00,
2013-05-25 07:52:00,31.0,27.0,-100.00,NW,320,2.0,4.0,85,0.00,,,0.00,3.000000,,2013-05-25 13:52:00,
2013-05-25 08:02:00,31.0,27.0,-100.00,NW,320,2.0,4.0,85,0.00,,,0.00,3.000000,,2013-05-25 14:02:00,
2013-05-25 08:11:00,31.0,27.0,-100.00,NW,320,2.0,4.0,85,0.00,,,0.00,3.000000,,2013-05-25 14:11:00,
2013-05-25 08:32:00,33.0,28.0,-100.00,ENE,65,0.0,4.0,83,0.00,,,0.00,39.000000,,2013-05-25 14:32:00,
2013-05-25 08:42:00,33.0,28.0,-100.00,ENE,65,0.0,4.0,83,0.00,,,0.00,39.000000,,2013-05-25 14:42:00,
2013-05-25 08:52:00,33.0,28.0,-100.00,ENE,65,0.0,4.0,83,0.00,,,0.00,39.000000,,2013-05-25 14:52:00,
2013-05-25 09:01:00,33.0,28.0,-100.00,ENE,65,0.0,4.0,83,0.00,,,0.00,39.000000,,2013-05-25 15:01:00,
2013-05-25 09:11:00,33.0,28.0,-100.00,ENE,65,0.0,4.0,83,0.00,,,0.00,39.000000,,2013-05-25 15:11:00,
2013-05-25 09:33:00,35.0,30.0,-100.00,South,174,2.0,4.0,81,0.00,,,0.00,119.000000,,2013-05-25 15:33:00,
2013-05-25 09:43:00,35.0,30.0,-100.00,South,174,2.0,4.0,81,0.00,,,0.00,119.000000,,2013-05-25 15:43:00,
2013-05-25 09:53:00,35.0,30.0,-100.00,South,174,2.0,4.0,81,0.00,,,0.00,119.000000,,2013-05-25 15:53:00,
2013-05-25 10:03:00,35.0,30.0,-100.00,South,174,2.0,4.0,81,0.00,,,0.00,119.000000,,2013-05-25 16:03:00,
2013-05-25 10:12:00,35.0,30.0,-100.00,South,174,2.0,4.0,81,0.00,,,0.00,119.000000,,2013-05-25 16:12:00,
2013-05-25 10:33:00,36.0,33.0,-100.00,SSW,209,2.0,4.0,87,0.00,,,0.00,220.000000,,2013-05-25 16:33:00,
2013-05-25 10:42:00,36.0,33.0,-100.00,SSW,209,2.0,4.0,87,0.00,,,0.00,220.000000,,2013-05-25 16:42:00,
2013-05-25 10:52:00,36.0,33.0,-100.00,SSW,209,2.0,4.0,87,0.00,,,0.00,220.000000,,2013-05-25 16:52:00,
2013-05-25 11:02:00,36.0,33.0,-100.00,SSW,209,2.0,4.0,87,0.00,,,0.00,220.000000,,2013-05-25 17:02:00,
2013-05-25 11:11:00,36.0,33.0,-100.00,SSW,209,2.0,4.0,87,0.00,,,0.00,220.000000,,2013-05-25 17:11:00,
2013-05-25 11:33:00,41.0,35.0,-100.00,SSE,167,4.0,6.0,79,0.00,,,0.00,517.000000,,2013-05-25 17:33:00,
2013-05-25 11:42:00,41.0,35.0,-100.00,SSE,167,4.0,6.0,79,0.00,,,0.00,517.000000,,2013-05-25 17:42:00,
2013-05-25 11:52:00,41.0,35.0,-100.00,SSE,167,4.0,6.0,79,0.00,,,0.00,517.000000,,2013-05-25 17:52:00,
2013-05-25 12:01:00,41.0,35.0,-100.00,SSE,167,4.0,6.0,79,0.00,,,0.00,517.000000,,2013-05-25 18:01:00,
2013-05-25 12:11:00,41.0,35.0,-100.00,SSE,167,4.0,6.0,79,0.00,,,0.00,517.000000,,2013-05-25 18:11:00,
2013-05-25 12:32:00,44.0,37.0,-100.00,WSW,241,2.0,4.0,77,0.00,,,0.00,650.000000,,2013-05-25 18:32:00,
2013-05-25 12:42:00,44.0,37.0,-100.00,WSW,241,2.0,4.0,77,0.00,,,0.00,650.000000,,2013-05-25 18:42:00,
2013-05-25 12:52:00,44.0,37.0,-100.00,WSW,241,2.0,4.0,77,0.00,,,0.00,650.000000,,2013-05-25 18:52:00,
2013-05-25 13:01:00,44.0,37.0,-100.00,WSW,241,2.0,4.0,77,0.00,,,0.00,650.000000,,2013-05-25 19:01:00,
2013-05-25 13:11:00,44.0,37.0,-100.00,WSW,241,2.0,4.0,77,0.00,,,0.00,650.000000,,2013-05-25 19:11:00,
2013-05-25 13:32:00,49.0,38.0,-100.00,SSW,197,4.0,6.0,66,0.00,,,0.00,1013.000000,,2013-05-25 19:32:00,
2013-05-25 13:42:00,49.0,38.0,-100.00,SSW,197,4.0,6.0,66,0.00,,,0.00,1013.000000,,2013-05-25 19:42:00,
2013-05-25 13:52:00,49.0,38.0,-100.00,SSW,197,4.0,6.0,66,0.00,,,0.00,1013.000000,,2013-05-25 19:52:00,
2013-05-25 14:02:00,49.0,38.0,-100.00,SSW,197,4.0,6.0,66,0.00,,,0.00,1013.000000,,2013-05-25 20:02:00,
2013-05-25 14:11:00,49.0,38.0,-100.00,SSW,197,4.0,6.0,66,0.00,,,0.00,1013.000000,,2013-05-25 20:11:00,
2013-05-25 14:32:00,50.0,32.0,-100.00,SW,220,3.0,7.0,50,0.00,,,0.00,976.000000,,2013-05-25 20:32:00,
2013-05-25 14:42:00,50.0,32.0,-100.00,SW,220,3.0,7.0,50,0.00,,,0.00,976.000000,,2013-05-25 20:42:00,
2013-05-25 14:52:00,50.0,32.0,-100.00,SW,220,3.0,7.0,50,0.00,,,0.00,976.000000,,2013-05-25 20:52:00,
2013-05-25 15:01:00,50.0,32.0,-100.00,SW,220,3.0,7.0,50,0.00,,,0.00,976.000000,,2013-05-25 21:01:00,
2013-05-25 15:11:00,50.0,32.0,-100.00,SW,220,3.0,7.0,50,0.00,,,0.00,976.000000,,2013-05-25 21:11:00,
2013-05-25 15:33:00,55.0,35.0,-100.00,SSW,208,4.0,7.0,46,0.00,,,0.00,1056.000000,,2013-05-25 21:33:00,
2013-05-25 16:33:00,50.0,36.0,-100.00,SSW,210,2.0,6.0,58,-99.99,,,0.00,602.000000,,2013-05-25 22:33:00,
2013-05-25 16:42:00,50.0,36.0,-100.00,SSW,210,2.0,6.0,58,-99.99,,,0.00,602.000000,,2013-05-25 22:42:00,
2013-05-25 16:52:00,50.0,36.0,-100.00,SSW,210,2.0,6.0,58,-99.99,,,0.00,602.000000,,2013-05-25 22:52:00,
2013-05-25 17:02:00,50.0,36.0,-100.00,SSW,210,2.0,6.0,58,-99.99,,,0.00,602.000000,,2013-05-25 23:02:00,
2013-05-25 17:12:00,50.0,36.0,-100.00,SSW,210,2.0,6.0,58,-99.99,,,0.00,602.000000,,2013-05-25 23:12:00,
2013-05-25 17:32:00,51.0,34.0,-100.00,SSW,196,4.0,9.0,53,0.00,,,0.00,592.000000,,2013-05-25 23:32:00,
2013-05-25 17:42:00,51.0,34.0,-100.00,SSW,196,4.0,9.0,53,0.00,,,0.00,592.000000,,2013-05-25 23:42:00,
2013-05-25 17:52:00,51.0,34.0,-100.00,SSW,196,4.0,9.0,53,0.00,,,0.00,592.000000,,2013-05-25 23:52:00,
2013-05-25 18:01:00,51.0,34.0,-100.00,SSW,196,4.0,9.0,53,0.00,,,0.00,592.000000,,2013-05-26 00:01:00,
2013-05-25 18:11:00,51.0,34.0,-100.00,SSW,196,4.0,9.0,53,0.00,,,0.00,592.000000,,2013-05-26 00:11:00,
2013-05-25 19:32:00,51.0,34.0,-100.00,SW,219,2.0,5.0,52,-99.99,,,0.00,248.000000,,2013-05-26 01:32:00,
2013-05-25 19:42:00,51.0,34.0,-100.00,SW,219,2.0,5.0,52,-99.99,,,0.00,248.000000,,2013-05-26 01:42:00,
2013-05-25 19:52:00,51.0,34.0,-100.00,SW,219,2.0,5.0,52,-99.99,,,0.00,248.000000,,2013-05-26 01:52:00,
2013-05-25 20:02:00,51.0,34.0,-100.00,SW,219,2.0,5.0,52,-99.99,,,0.00,248.000000,,2013-05-26 02:02:00,
2013-05-25 20:11:00,51.0,34.0,-100.00,SW,219,2.0,5.0,52,-99.99,,,0.00,248.000000,,2013-05-26 02:11:00,
2013-05-25 20:32:00,49.0,31.0,-100.00,SSW,212,3.0,8.0,49,0.00,,,-99.99,101.000000,,2013-05-26 02:32:00,
2013-05-25 20:42:00,49.0,31.0,-100.00,SSW,212,3.0,8.0,49,0.00,,,-99.99,101.000000,,2013-05-26 02:42:00,
2013-05-25 20:52:00,49.0,31.0,-100.00,SSW,212,3.0,8.0,49,0.00,,,-99.99,101.000000,,2013-05-26 02:52:00,
2013-05-25 21:01:00,49.0,31.0,-100.00,SSW,212,3.0,8.0,49,0.00,,,-99.99,101.000000,,2013-05-26 03:01:00,
2013-05-25 21:11:00,49.0,31.0,-100.00,SSW,212,3.0,8.0,49,0.00,,,-99.99,101.000000,,2013-05-26 03:11:00,
2013-05-25 21:33:00,43.0,32.0,-100.00,West,264,1.0,5.0,65,0.00,,,0.00,75.000000,,2013-05-26 03:33:00,
2013-05-25 21:43:00,43.0,32.0,-100.00,West,264,1.0,5.0,65,0.00,,,0.00,75.000000,,2013-05-26 03:43:00,
2013-05-25 21:53:00,43.0,32.0,-100.00,West,264,1.0,5.0,65,0.00,,,0.00,75.000000,,2013-05-26 03:53:00,
2013-05-25 22:02:00,43.0,32.0,-100.00,West,264,1.0,5.0,65,0.00,,,0.00,75.000000,,2013-05-26 04:02:00,
2013-05-25 22:12:00,43.0,32.0,-100.00,West,264,1.0,5.0,65,0.00,,,0.00,75.000000,,2013-05-26 04:12:00,
2013-05-25 22:33:00,40.0,30.0,-100.00,NW,318,2.0,4.0,68,0.00,,,0.00,13.000000,,2013-05-26 04:33:00,
2013-05-25 22:42:00,40.0,30.0,-100.00,NW,318,2.0,4.0,68,0.00,,,0.00,13.000000,,2013-05-26 04:42:00,
2013-05-25 22:52:00,40.0,30.0,-100.00,NW,318,2.0,4.0,68,0.00,,,0.00,13.000000,,2013-05-26 04:52:00,
2013-05-25 23:02:00,40.0,30.0,-100.00,NW,318,2.0,4.0,68,0.00,,,0.00,13.000000,,2013-05-26 05:02:00,
2013-05-25 23:12:00,40.0,30.0,-100.00,NW,318,2.0,4.0,68,0.00,,,0.00,13.000000,,2013-05-26 05:12:00,
2013-05-25 23:32:00,39.0,29.0,-100.00,NNW,336,3.0,4.0,67,0.00,,,0.00,0.000000,,2013-05-26 05:32:00,
2013-05-25 23:42:00,39.0,29.0,-100.00,NNW,336,3.0,4.0,67,0.00,,,0.00,0.000000,,2013-05-26 05:42:00,
2013-05-25 23:52:00,39.0,29.0,-100.00,NNW,336,3.0,4.0,67,0.00,,,0.00,0.000000,,2013-05-26 05:52:00,